createdAt,value
2023-01-18T00:01:14.549Z,78.10
2023-01-18T00:03:42.211Z,78.14
2023-01-18T00:06:10.552Z,77.79
2023-01-18T00:08:39.866Z,78.53
2023-01-18T00:11:10.966Z,78.39
2023-01-18T00:13:38.758Z,77.91
2023-01-18T00:16:18.483Z,78.17
2023-01-18T00:18:52.563Z,77.70
2023-01-18T00:21:19.579Z,77.84
2023-01-18T00:23:46.457Z,78.27
2023-01-18T00:26:13.866Z,78.50
2023-01-18T00:28:41.698Z,78.38
2023-01-18T00:31:18.776Z,78.27
2023-01-18T00:33:47.833Z,78.88
2023-01-18T00:36:15.686Z,78.88
2023-01-18T00:38:42.949Z,78.17
2023-01-18T00:41:09.757Z,78.97
2023-01-18T00:43:39.830Z,79.08
2023-01-18T00:46:12.120Z,79.03
2023-01-18T00:48:40.995Z,78.28
2023-01-18T00:51:10.866Z,78.22
2023-01-18T00:53:38.190Z,78.77
2023-01-18T00:56:10.580Z,78.43
2023-01-18T00:58:37.988Z,78.35
2023-01-18T01:01:06.515Z,78.31
2023-01-18T01:03:53.840Z,77.98
2023-01-18T01:06:45.663Z,78.01
2023-01-18T01:09:26.872Z,77.82
2023-01-18T01:12:13.139Z,77.76
2023-01-18T01:15:02.891Z,77.90
2023-01-18T01:17:54.555Z,77.55
2023-01-18T01:20:42.335Z,77.73
2023-01-18T01:23:31.203Z,77.91
2023-01-18T01:26:07.790Z,78.30
2023-01-18T01:28:43.021Z,78.26
2023-01-18T01:31:13.743Z,78.40
2023-01-18T01:33:41.212Z,78.10
2023-01-18T01:36:11.177Z,78.44
2023-01-18T01:38:38.776Z,78.79
2023-01-18T01:41:21.299Z,78.56
2023-01-18T01:43:51.505Z,77.68
2023-01-18T01:46:34.394Z,78.84
2023-01-18T01:49:17.578Z,78.19
2023-01-18T01:51:56.635Z,77.90
2023-01-18T01:54:29.042Z,77.44
2023-01-18T01:57:10.941Z,77.71
2023-01-18T01:59:48.721Z,78.47
2023-01-18T02:02:15.763Z,77.74
2023-01-18T02:04:46.382Z,77.43
2023-01-18T02:07:13.365Z,77.90
2023-01-18T02:09:41.224Z,78.33
2023-01-18T02:12:08.178Z,77.71
2023-01-18T02:14:35.825Z,77.94
2023-01-18T02:17:17.457Z,77.35
2023-01-18T02:20:34.254Z,76.87
2023-01-18T02:23:49.176Z,76.97
2023-01-18T02:26:50.935Z,77.18
2023-01-18T02:29:41.323Z,77.53
2023-01-18T02:32:23.939Z,77.79
2023-01-18T02:35:03.058Z,77.50
2023-01-18T02:38:16.921Z,77.80
2023-01-18T02:40:46.536Z,78.26
2023-01-18T02:43:35.688Z,77.94
2023-01-18T02:46:23.638Z,77.96
2023-01-18T02:48:50.964Z,77.53
2023-01-18T02:51:17.818Z,77.07
2023-01-18T02:53:47.328Z,76.93
2023-01-18T02:56:22.223Z,76.68
2023-01-18T02:59:21.355Z,76.31
2023-01-18T03:01:59.785Z,76.85
2023-01-18T03:04:37.972Z,76.14
2023-01-18T03:07:29.807Z,76.65
2023-01-18T03:09:58.772Z,76.15
2023-01-18T03:13:00.737Z,76.47
2023-01-18T03:16:18.312Z,76.68
2023-01-18T03:19:02.951Z,75.74
2023-01-18T03:21:49.015Z,76.01
2023-01-18T03:24:18.659Z,75.70
2023-01-18T03:26:53.189Z,75.59
2023-01-18T03:29:40.426Z,75.89
2023-01-18T03:32:35.672Z,76.07
2023-01-18T03:35:07.690Z,76.43
2023-01-18T03:37:39.670Z,76.42
2023-01-18T03:40:19.773Z,76.71
2023-01-18T03:43:12.157Z,75.83
2023-01-18T03:45:43.799Z,76.48
2023-01-18T03:48:11.821Z,76.63
2023-01-18T03:50:49.146Z,76.67
2023-01-18T03:53:42.518Z,76.61
2023-01-18T03:56:52.793Z,76.27
2023-01-18T03:59:19.613Z,76.25
2023-01-18T04:01:48.180Z,76.25
2023-01-18T04:04:16.155Z,76.13
2023-01-18T04:06:43.047Z,75.60
2023-01-18T04:09:11.899Z,75.77
2023-01-18T04:11:38.698Z,75.84
2023-01-18T04:14:06.158Z,75.29
2023-01-18T04:16:33.127Z,76.02
2023-01-18T04:19:00.097Z,75.96
2023-01-18T04:21:26.860Z,75.72
2023-01-18T04:23:53.691Z,75.49
2023-01-18T04:26:20.531Z,76.32
2023-01-18T04:28:47.360Z,75.78
2023-01-18T04:31:14.357Z,76.43
2023-01-18T04:33:41.224Z,76.51
2023-01-18T04:36:08.825Z,76.46
2023-01-18T04:38:35.708Z,76.34
2023-01-18T04:41:04.513Z,76.65
2023-01-18T04:43:31.821Z,76.44
2023-01-18T04:45:58.677Z,77.00
2023-01-18T04:48:26.212Z,76.93
2023-01-18T04:50:53.193Z,77.35
2023-01-18T04:53:20.322Z,77.97
2023-01-18T04:55:47.633Z,78.66
2023-01-18T04:58:15.168Z,80.03
2023-01-18T05:00:42.089Z,80.78
2023-01-18T05:03:11.672Z,80.39
2023-01-18T05:05:38.981Z,80.21
2023-01-18T05:08:05.820Z,80.79
2023-01-18T05:10:33.622Z,80.94
2023-01-18T05:13:00.934Z,81.21
2023-01-18T05:15:28.038Z,81.15
2023-01-18T05:17:54.815Z,80.52
2023-01-18T05:20:21.643Z,80.20
2023-01-18T05:22:48.438Z,79.71
2023-01-18T05:25:15.253Z,79.66
2023-01-18T05:27:42.079Z,79.12
2023-01-18T05:30:11.068Z,79.55
2023-01-18T05:32:38.120Z,78.62
2023-01-18T05:35:05.969Z,78.36
2023-01-18T05:37:32.922Z,78.48
2023-01-18T05:39:59.950Z,78.53
2023-01-18T05:42:26.821Z,78.65
2023-01-18T05:44:53.803Z,78.41
2023-01-18T05:47:20.691Z,78.64
2023-01-18T05:49:47.553Z,78.43
2023-01-18T05:52:14.369Z,78.72
2023-01-18T05:54:41.612Z,78.77
2023-01-18T05:57:08.652Z,78.85
2023-01-18T05:59:35.518Z,78.68
2023-01-18T06:02:03.878Z,79.12
2023-01-18T06:04:30.834Z,79.09
2023-01-18T06:06:57.948Z,79.20
2023-01-18T06:09:24.774Z,79.50
2023-01-18T06:11:51.564Z,79.09
2023-01-18T06:14:18.388Z,79.51
2023-01-18T06:16:45.294Z,78.73
2023-01-18T06:19:12.454Z,79.13
2023-01-18T06:21:39.480Z,78.62
2023-01-18T06:24:06.680Z,79.13
2023-01-18T06:26:33.525Z,79.00
2023-01-18T06:29:00.461Z,78.80
2023-01-18T06:31:27.280Z,79.07
2023-01-18T06:33:54.137Z,79.03
2023-01-18T06:36:20.985Z,78.78
2023-01-18T06:38:47.810Z,79.10
2023-01-18T06:41:15.884Z,78.69
2023-01-18T06:43:42.767Z,79.07
2023-01-18T06:46:11.560Z,79.13
2023-01-18T06:48:38.605Z,79.81
2023-01-18T06:51:05.633Z,79.73
2023-01-18T06:53:32.739Z,79.67
2023-01-18T06:56:01.786Z,79.59
2023-01-18T06:58:31.025Z,80.11
2023-01-18T07:01:00.398Z,79.66
2023-01-18T07:03:30.972Z,80.16
2023-01-18T07:06:00.446Z,79.99
2023-01-18T07:08:30.792Z,79.95
2023-01-18T07:10:59.382Z,80.06
2023-01-18T07:13:26.942Z,80.25
2023-01-18T07:15:57.994Z,80.87
2023-01-18T07:18:26.459Z,80.98
2023-01-18T07:21:02.000Z,80.62
2023-01-18T07:23:30.088Z,81.20
2023-01-18T07:26:04.715Z,81.37
2023-01-18T07:28:32.613Z,81.26
2023-01-18T07:31:00.317Z,80.93
2023-01-18T07:33:28.389Z,80.91
2023-01-18T07:35:57.506Z,80.34
2023-01-18T07:38:25.365Z,80.11
2023-01-18T07:41:09.336Z,80.24
2023-01-18T07:43:37.628Z,80.86
2023-01-18T07:46:06.765Z,80.23
2023-01-18T07:48:34.205Z,79.94
2023-01-18T07:51:07.152Z,79.83
2023-01-18T07:53:35.865Z,79.25
2023-01-18T07:56:06.731Z,78.87
2023-01-18T07:58:35.770Z,77.82
2023-01-18T08:01:09.815Z,77.17
2023-01-18T08:03:37.596Z,76.09
2023-01-18T08:06:08.642Z,75.69
2023-01-18T08:08:36.912Z,75.94
2023-01-18T08:11:06.200Z,75.42
2023-01-18T08:13:33.072Z,75.74
2023-01-18T08:16:02.966Z,75.27
2023-01-18T08:18:30.126Z,75.46
2023-01-18T08:20:57.286Z,74.58
2023-01-18T08:23:24.314Z,74.85
2023-01-18T08:25:51.887Z,74.93
2023-01-18T08:28:19.447Z,75.50
2023-01-18T08:30:48.871Z,74.75
2023-01-18T08:33:15.781Z,74.70
2023-01-18T08:35:47.853Z,74.33
2023-01-18T08:38:16.342Z,74.15
2023-01-18T08:40:43.525Z,74.15
2023-01-18T08:43:11.768Z,73.20
2023-01-18T08:45:38.876Z,73.78
2023-01-18T08:48:09.639Z,73.38
2023-01-18T08:50:39.268Z,73.61
2023-01-18T08:53:06.875Z,73.18
2023-01-18T08:55:36.462Z,72.77
2023-01-18T08:58:03.742Z,72.79
2023-01-18T09:00:30.615Z,72.58
2023-01-18T09:02:58.619Z,72.07
2023-01-18T09:05:27.107Z,71.50
2023-01-18T09:07:55.745Z,70.94
2023-01-18T09:10:23.200Z,70.52
2023-01-18T09:12:52.771Z,70.42
2023-01-18T09:15:20.427Z,69.94
2023-01-18T09:17:47.286Z,68.71
2023-01-18T09:20:18.571Z,67.67
2023-01-18T09:22:47.722Z,67.08
2023-01-18T09:25:15.119Z,67.31
2023-01-18T09:27:42.492Z,66.98
2023-01-18T09:30:10.295Z,67.11
2023-01-18T09:32:37.169Z,65.86
2023-01-18T09:35:04.484Z,65.22
2023-01-18T09:37:32.574Z,64.50
2023-01-18T09:40:00.307Z,64.22
2023-01-18T09:42:37.979Z,64.33
2023-01-18T09:45:05.932Z,63.82
2023-01-18T09:47:43.679Z,63.06
2023-01-18T09:50:16.228Z,63.25
2023-01-18T09:53:35.458Z,63.03
2023-01-18T09:56:27.913Z,62.61
2023-01-18T09:59:27.559Z,62.99
2023-01-18T10:01:56.227Z,62.45
2023-01-18T10:04:36.189Z,61.88
2023-01-18T10:07:07.928Z,63.40
2023-01-18T10:09:43.215Z,62.72
2023-01-18T10:12:38.996Z,62.25
2023-01-18T10:15:22.096Z,62.39
2023-01-18T10:17:53.608Z,62.02
2023-01-18T10:20:44.493Z,62.06
2023-01-18T10:23:35.796Z,63.06
2023-01-18T10:26:09.352Z,63.05
2023-01-18T10:29:00.768Z,62.47
2023-01-18T10:31:57.285Z,62.68
2023-01-18T10:34:34.447Z,62.25
2023-01-18T10:37:21.307Z,62.71
2023-01-18T10:40:12.497Z,63.67
2023-01-18T10:42:52.489Z,61.79
2023-01-18T10:45:24.200Z,61.70
2023-01-18T10:47:53.612Z,61.57
2023-01-18T10:50:39.976Z,60.92
2023-01-18T10:53:34.288Z,60.03
2023-01-18T10:56:16.413Z,59.84
2023-01-18T10:58:57.985Z,59.86
2023-01-18T11:01:36.768Z,60.16
2023-01-18T11:04:07.375Z,59.27
2023-01-18T11:06:51.061Z,58.77
2023-01-18T11:09:41.642Z,58.66
2023-01-18T11:12:38.448Z,58.01
2023-01-18T11:15:15.029Z,57.96
2023-01-18T11:18:00.384Z,58.00
2023-01-18T11:20:49.869Z,58.09
2023-01-18T11:23:37.433Z,58.24
2023-01-18T11:26:16.045Z,57.77
2023-01-18T11:29:02.291Z,58.18
2023-01-18T11:31:50.349Z,58.95
2023-01-18T11:34:25.393Z,59.12
2023-01-18T11:36:52.359Z,59.66
2023-01-18T11:39:27.304Z,59.98
2023-01-18T11:42:34.666Z,59.26
2023-01-18T11:45:24.866Z,58.18
2023-01-18T11:48:28.547Z,57.27
2023-01-18T11:51:22.548Z,57.84
2023-01-18T11:54:05.712Z,59.03
2023-01-18T11:56:52.048Z,59.06
2023-01-18T11:59:36.435Z,58.76
2023-01-18T12:02:12.386Z,60.04
2023-01-18T12:04:47.891Z,60.24
2023-01-18T12:07:18.879Z,60.76
2023-01-18T12:09:57.802Z,61.18
2023-01-18T12:12:52.720Z,59.14
2023-01-18T12:16:00.924Z,59.20
2023-01-18T12:19:02.689Z,59.25
2023-01-18T12:22:16.528Z,58.65
2023-01-18T12:25:01.885Z,58.72
2023-01-18T12:27:50.437Z,60.05
2023-01-18T12:31:21.337Z,59.86
2023-01-18T12:34:08.065Z,60.00
2023-01-18T12:36:51.728Z,60.44
2023-01-18T12:39:51.348Z,59.72
2023-01-18T12:42:46.624Z,59.82
2023-01-18T12:45:29.000Z,57.73
2023-01-18T12:48:54.930Z,58.18
2023-01-18T12:51:25.960Z,58.75
2023-01-18T12:54:08.957Z,58.18
2023-01-18T12:56:40.511Z,58.41
2023-01-18T12:59:25.305Z,57.95
2023-01-18T13:02:00.438Z,58.51
2023-01-18T13:04:36.622Z,58.52
2023-01-18T13:07:13.133Z,58.21
2023-01-18T13:09:46.280Z,58.04
2023-01-18T13:12:14.741Z,57.47
2023-01-18T13:15:04.900Z,57.06
2023-01-18T13:17:39.132Z,57.86
2023-01-18T13:20:10.731Z,57.64
2023-01-18T13:23:16.039Z,57.30
2023-01-18T13:26:21.441Z,57.57
2023-01-18T13:28:48.406Z,58.59
2023-01-18T13:31:15.383Z,59.40
2023-01-18T13:33:47.306Z,60.19
2023-01-18T13:36:17.386Z,59.05
2023-01-18T13:38:58.041Z,59.10
2023-01-18T13:41:29.212Z,59.33
2023-01-18T13:44:06.511Z,59.23
2023-01-18T13:46:36.505Z,59.05
2023-01-18T13:49:37.396Z,58.82
2023-01-18T13:52:35.522Z,58.90
2023-01-18T13:55:23.915Z,59.57
2023-01-18T13:57:55.583Z,59.09
2023-01-18T14:00:26.754Z,58.79
2023-01-18T14:03:07.793Z,58.78
2023-01-18T14:05:43.183Z,58.63
2023-01-18T14:08:31.337Z,59.07
2023-01-18T14:11:28.226Z,59.66
2023-01-18T14:13:54.939Z,59.44
2023-01-18T14:16:26.406Z,60.27
2023-01-18T14:19:00.875Z,60.14
2023-01-18T14:22:17.451Z,60.97
2023-01-18T14:25:17.945Z,60.14
2023-01-18T14:27:51.054Z,60.08
2023-01-18T14:30:27.967Z,59.68
2023-01-18T14:33:04.964Z,59.02
2023-01-18T14:35:31.962Z,58.97
2023-01-18T14:38:18.845Z,58.46
2023-01-18T14:40:57.268Z,58.53
2023-01-18T14:43:37.186Z,59.50
2023-01-18T14:46:21.088Z,60.87
2023-01-18T14:49:01.625Z,60.45
2023-01-18T14:51:29.890Z,60.70
2023-01-18T14:54:02.840Z,60.66
2023-01-18T14:56:34.786Z,59.68
2023-01-18T14:59:19.184Z,59.41
2023-01-18T15:02:14.533Z,60.57
2023-01-18T15:04:45.492Z,60.26
2023-01-18T15:07:24.896Z,60.15
2023-01-18T15:09:52.039Z,61.21
2023-01-18T15:12:24.272Z,61.70
2023-01-18T15:14:51.343Z,61.96
2023-01-18T15:17:24.833Z,61.66
2023-01-18T15:20:07.297Z,61.89
2023-01-18T15:22:38.281Z,61.82
2023-01-18T15:25:18.449Z,61.70
2023-01-18T15:27:51.827Z,61.83
2023-01-18T15:30:22.993Z,61.54
2023-01-18T15:32:58.083Z,60.28
2023-01-18T15:35:25.946Z,58.59
2023-01-18T15:37:53.198Z,58.56
2023-01-18T15:40:19.997Z,58.35
2023-01-18T15:43:07.582Z,58.32
2023-01-18T15:45:40.719Z,58.52
2023-01-18T15:48:18.628Z,58.92
2023-01-18T15:50:56.767Z,59.17
2023-01-18T15:53:56.173Z,59.60
2023-01-18T15:56:29.710Z,60.27
2023-01-18T15:59:00.567Z,60.40
2023-01-18T16:01:33.892Z,60.71
2023-01-18T16:04:11.749Z,60.69
2023-01-18T16:06:40.238Z,61.07
2023-01-18T16:09:20.667Z,60.81
2023-01-18T16:11:54.389Z,60.93
2023-01-18T16:14:33.599Z,61.20
2023-01-18T16:17:27.584Z,62.23
2023-01-18T16:19:57.695Z,61.72
2023-01-18T16:22:31.926Z,62.33
2023-01-18T16:25:02.587Z,62.85
2023-01-18T16:27:31.842Z,63.08
2023-01-18T16:30:14.634Z,63.46
2023-01-18T16:32:41.432Z,64.25
2023-01-18T16:35:10.842Z,64.98
2023-01-18T16:37:38.581Z,64.75
2023-01-18T16:40:08.758Z,64.78
2023-01-18T16:43:02.976Z,64.92
2023-01-18T16:45:35.440Z,64.94
2023-01-18T16:48:03.804Z,64.89
2023-01-18T16:50:31.234Z,65.07
2023-01-18T16:52:58.073Z,65.18
2023-01-18T16:55:24.936Z,65.16
2023-01-18T16:57:51.982Z,65.63
2023-01-18T17:00:26.362Z,65.97
2023-01-18T17:02:53.561Z,65.93
2023-01-18T17:05:20.739Z,66.22
2023-01-18T17:07:47.904Z,66.55
2023-01-18T17:10:29.193Z,66.53
2023-01-18T17:12:56.034Z,67.17
2023-01-18T17:15:22.902Z,67.48
2023-01-18T17:17:50.295Z,67.35
2023-01-18T17:20:23.612Z,67.47
2023-01-18T17:22:51.986Z,68.17
2023-01-18T17:25:20.464Z,68.36
2023-01-18T17:27:47.422Z,68.51
2023-01-18T17:30:20.259Z,68.84
2023-01-18T17:32:47.904Z,69.42
2023-01-18T17:35:17.737Z,69.52
2023-01-18T17:37:45.461Z,69.87
2023-01-18T17:40:20.352Z,70.58
2023-01-18T17:42:51.700Z,70.89
2023-01-18T17:45:18.629Z,71.45
2023-01-18T17:47:45.471Z,70.99
2023-01-18T17:50:17.421Z,71.33
2023-01-18T17:52:44.447Z,71.28
2023-01-18T17:55:13.669Z,71.99
2023-01-18T17:57:41.503Z,72.32
2023-01-18T18:00:13.442Z,72.00
2023-01-18T18:02:41.287Z,72.73
2023-01-18T18:05:09.117Z,73.03
2023-01-18T18:07:36.258Z,72.44
2023-01-18T18:10:05.363Z,73.12
2023-01-18T18:12:34.042Z,72.89
2023-01-18T18:15:01.520Z,73.57
2023-01-18T18:17:30.772Z,73.52
2023-01-18T18:19:58.181Z,73.55
2023-01-18T18:22:25.566Z,73.76
2023-01-18T18:24:52.687Z,73.80
2023-01-18T18:27:20.377Z,73.72
2023-01-18T18:29:47.867Z,74.30
2023-01-18T18:32:15.128Z,74.32
2023-01-18T18:34:42.017Z,74.81
2023-01-18T18:37:09.004Z,74.79
2023-01-18T18:39:35.862Z,75.59
2023-01-18T18:42:02.735Z,75.48
2023-01-18T18:44:29.601Z,75.55
2023-01-18T18:46:56.422Z,75.41
2023-01-18T18:49:23.230Z,74.54
2023-01-18T18:51:50.090Z,73.85
2023-01-18T18:54:17.004Z,74.14
2023-01-18T18:56:43.929Z,73.82
2023-01-18T18:59:10.898Z,73.88
2023-01-18T19:01:37.886Z,73.87
2023-01-18T19:04:05.419Z,74.04
2023-01-18T19:06:32.686Z,74.31
2023-01-18T19:08:59.627Z,74.49
2023-01-18T19:11:26.520Z,74.39
2023-01-18T19:13:55.947Z,74.19
2023-01-18T19:16:23.051Z,74.71
2023-01-18T19:18:49.972Z,74.44
2023-01-18T19:21:16.784Z,74.78
2023-01-18T19:23:43.701Z,74.62
2023-01-18T19:26:10.704Z,74.73
2023-01-18T19:28:37.756Z,74.81
2023-01-18T19:31:06.680Z,74.61
2023-01-18T19:33:33.746Z,74.71
2023-01-18T19:36:11.856Z,74.75
2023-01-18T19:38:46.440Z,75.05
2023-01-18T19:41:14.898Z,75.55
2023-01-18T19:43:42.750Z,76.24
2023-01-18T19:46:12.610Z,76.52
2023-01-18T19:48:40.194Z,76.96
2023-01-18T19:51:21.186Z,77.14
2023-01-18T19:53:49.295Z,77.41
2023-01-18T19:56:16.143Z,77.75
2023-01-18T19:58:43.233Z,77.92
2023-01-18T20:01:26.707Z,77.23
2023-01-18T20:04:01.241Z,77.69
2023-01-18T20:06:28.134Z,77.94
2023-01-18T20:08:54.987Z,77.98
2023-01-18T20:11:21.809Z,78.02
2023-01-18T20:13:50.315Z,77.46
2023-01-18T20:16:20.316Z,76.93
2023-01-18T20:18:48.671Z,77.33
2023-01-18T20:21:18.393Z,77.59
2023-01-18T20:23:45.978Z,77.87
2023-01-18T20:26:24.566Z,77.71
2023-01-18T20:28:55.831Z,77.40
2023-01-18T20:31:23.345Z,76.98
2023-01-18T20:33:50.424Z,76.31
2023-01-18T20:36:17.323Z,76.18
2023-01-18T20:38:44.175Z,75.98
2023-01-18T20:41:11.224Z,76.52
2023-01-18T20:43:38.136Z,77.04
2023-01-18T20:46:10.272Z,77.25
2023-01-18T20:48:38.606Z,78.05
2023-01-18T20:51:07.421Z,78.37
2023-01-18T20:53:34.754Z,79.39
2023-01-18T20:56:04.812Z,79.70
2023-01-18T20:58:32.018Z,79.70
2023-01-18T21:01:06.075Z,79.53
2023-01-18T21:03:33.024Z,79.60
2023-01-18T21:05:59.919Z,79.63
2023-01-18T21:08:26.727Z,79.90
2023-01-18T21:10:53.610Z,80.01
2023-01-18T21:13:20.572Z,80.00
2023-01-18T21:15:58.309Z,80.02
2023-01-18T21:18:28.823Z,80.59
